sensor_id;sensor_type;location;lat;lon;timestamp;pressure;altitude;pressure_sealevel;temperature;humidity
74474;BME280;62922;-6.168;106.796;2022-12-01T00:01:17;100819.06;;;30.84;59.71
74474;BME280;62922;-6.168;106.796;2022-12-01T00:03:43;100825.84;;;30.83;59.52
74474;BME280;62922;-6.168;106.796;2022-12-01T00:06:15;100834.16;;;30.88;59.61
74474;BME280;62922;-6.168;106.796;2022-12-01T00:08:43;100868.41;;;31.15;59.78
74474;BME280;62922;-6.168;106.796;2022-12-01T00:11:30;100820.69;;;30.85;59.58
74474;BME280;62922;-6.168;106.796;2022-12-01T00:13:56;100786.22;;;30.71;59.40
74474;BME280;62922;-6.168;106.796;2022-12-01T00:16:23;100814.41;;;30.88;59.69
74474;BME280;62922;-6.168;106.796;2022-12-01T00:18:50;100852.00;;;31.09;59.70
74474;BME280;62922;-6.168;106.796;2022-12-01T00:21:19;100827.16;;;30.94;59.65
74474;BME280;62922;-6.168;106.796;2022-12-01T00:23:51;100855.16;;;31.16;59.81
74474;BME280;62922;-6.168;106.796;2022-12-01T00:26:19;100860.63;;;31.21;59.61
74474;BME280;62922;-6.168;106.796;2022-12-01T00:28:51;100859.94;;;31.15;60.14
74474;BME280;62922;-6.168;106.796;2022-12-01T00:31:18;100837.59;;;31.02;59.33
74474;BME280;62922;-6.168;106.796;2022-12-01T00:33:44;100838.75;;;31.01;59.73
74474;BME280;62922;-6.168;106.796;2022-12-01T00:36:11;100822.69;;;30.93;59.81
74474;BME280;62922;-6.168;106.796;2022-12-01T00:38:37;100775.13;;;30.65;59.78
74474;BME280;62922;-6.168;106.796;2022-12-01T00:41:04;100808.41;;;30.81;60.04
74474;BME280;62922;-6.168;106.796;2022-12-01T00:43:31;100860.94;;;31.19;59.55
74474;BME280;62922;-6.168;106.796;2022-12-01T00:45:57;100841.91;;;31.08;60.31
74474;BME280;62922;-6.168;106.796;2022-12-01T00:48:26;100837.94;;;31.00;59.90
74474;BME280;62922;-6.168;106.796;2022-12-01T00:50:53;100745.63;;;30.54;60.29
74474;BME280;62922;-6.168;106.796;2022-12-01T00:53:20;100813.41;;;30.92;59.76
74474;BME280;62922;-6.168;106.796;2022-12-01T00:55:47;100819.69;;;30.98;59.79
74474;BME280;62922;-6.168;106.796;2022-12-01T00:58:13;100792.03;;;30.83;59.79
74474;BME280;62922;-6.168;106.796;2022-12-01T01:00:40;100817.38;;;31.00;60.12
74474;BME280;62922;-6.168;106.796;2022-12-01T01:03:08;100851.16;;;31.25;59.85
74474;BME280;62922;-6.168;106.796;2022-12-01T01:05:38;100801.16;;;30.97;60.21
74474;BME280;62922;-6.168;106.796;2022-12-01T01:08:09;100830.63;;;31.16;60.02
74474;BME280;62922;-6.168;106.796;2022-12-01T01:10:41;100843.69;;;31.21;60.15
74474;BME280;62922;-6.168;106.796;2022-12-01T01:13:08;100842.88;;;31.20;59.66
74474;BME280;62922;-6.168;106.796;2022-12-01T01:15:37;100848.69;;;31.15;59.92
74474;BME280;62922;-6.168;106.796;2022-12-01T01:18:04;100852.81;;;31.26;59.87
74474;BME280;62922;-6.168;106.796;2022-12-01T01:20:31;100854.97;;;31.29;59.66
74474;BME280;62922;-6.168;106.796;2022-12-01T01:22:58;100789.22;;;30.91;59.81
74474;BME280;62922;-6.168;106.796;2022-12-01T01:25:24;100846.03;;;31.27;59.59
74474;BME280;62922;-6.168;106.796;2022-12-01T01:27:54;100812.72;;;31.12;59.53
74474;BME280;62922;-6.168;106.796;2022-12-01T01:30:20;100804.94;;;31.09;58.99
74474;BME280;62922;-6.168;106.796;2022-12-01T01:32:49;100788.84;;;31.01;59.41
74474;BME280;62922;-6.168;106.796;2022-12-01T01:35:15;100822.63;;;31.27;59.13
74474;BME280;62922;-6.168;106.796;2022-12-01T01:37:42;100836.06;;;31.38;59.25
74474;BME280;62922;-6.168;106.796;2022-12-01T01:40:08;100809.88;;;31.21;59.17
74474;BME280;62922;-6.168;106.796;2022-12-01T01:42:35;100763.34;;;30.98;58.71
74474;BME280;62922;-6.168;106.796;2022-12-01T01:45:01;100768.63;;;30.99;59.23
74474;BME280;62922;-6.168;106.796;2022-12-01T01:47:36;100832.88;;;31.48;59.02
74474;BME280;62922;-6.168;106.796;2022-12-01T01:50:08;100819.97;;;31.47;58.85
74474;BME280;62922;-6.168;106.796;2022-12-01T01:52:37;100797.56;;;31.34;58.59
74474;BME280;62922;-6.168;106.796;2022-12-01T01:55:06;100789.94;;;31.34;58.71
74474;BME280;62922;-6.168;106.796;2022-12-01T01:57:33;100778.50;;;31.31;59.23
74474;BME280;62922;-6.168;106.796;2022-12-01T02:00:07;100785.47;;;31.42;58.97
74474;BME280;62922;-6.168;106.796;2022-12-01T02:02:39;100771.69;;;31.32;58.63
74474;BME280;62922;-6.168;106.796;2022-12-01T02:05:28;100798.53;;;31.55;58.35
74474;BME280;62922;-6.168;106.796;2022-12-01T02:07:56;100775.66;;;31.48;58.49
74474;BME280;62922;-6.168;106.796;2022-12-01T02:13:14;100792.84;;;31.63;58.48
74474;BME280;62922;-6.168;106.796;2022-12-01T02:34:21;100747.00;;;31.75;57.44
74474;BME280;62922;-6.168;106.796;2022-12-01T02:36:56;100759.53;;;31.86;57.42
74474;BME280;62922;-6.168;106.796;2022-12-01T02:42:08;100756.84;;;31.98;57.57
74474;BME280;62922;-6.168;106.796;2022-12-01T02:45:02;100750.22;;;31.94;56.70
74474;BME280;62922;-6.168;106.796;2022-12-01T02:47:31;100791.13;;;32.09;56.90
74474;BME280;62922;-6.168;106.796;2022-12-01T02:49:59;100776.84;;;32.14;56.87
74474;BME280;62922;-6.168;106.796;2022-12-01T02:52:27;100769.09;;;32.02;57.34
74474;BME280;62922;-6.168;106.796;2022-12-01T02:54:55;100772.69;;;32.11;57.02
74474;BME280;62922;-6.168;106.796;2022-12-01T02:57:22;100727.19;;;31.84;57.31
74474;BME280;62922;-6.168;106.796;2022-12-01T02:59:52;100775.50;;;32.11;57.05
74474;BME280;62922;-6.168;106.796;2022-12-01T03:10:30;100759.34;;;32.20;56.32
74474;BME280;62922;-6.168;106.796;2022-12-01T03:16:01;100746.13;;;32.33;56.52
74474;BME280;62922;-6.168;106.796;2022-12-01T03:23:51;100739.53;;;32.49;55.58
74474;BME280;62922;-6.168;106.796;2022-12-01T03:26:18;100733.78;;;32.58;55.43
74474;BME280;62922;-6.168;106.796;2022-12-01T03:28:53;100667.66;;;32.18;55.72
74474;BME280;62922;-6.168;106.796;2022-12-01T03:31:31;100674.75;;;32.24;55.56
74474;BME280;62922;-6.168;106.796;2022-12-01T03:34:04;100715.06;;;32.53;55.54
74474;BME280;62922;-6.168;106.796;2022-12-01T03:36:38;100670.78;;;32.25;55.81
74474;BME280;62922;-6.168;106.796;2022-12-01T03:39:12;100630.22;;;32.09;54.86
74474;BME280;62922;-6.168;106.796;2022-12-01T03:41:46;100665.31;;;32.40;55.02
74474;BME280;62922;-6.168;106.796;2022-12-01T03:44:20;100703.81;;;32.66;54.55
74474;BME280;62922;-6.168;106.796;2022-12-01T03:47:09;100698.56;;;32.76;54.19
74474;BME280;62922;-6.168;106.796;2022-12-01T03:49:39;100638.25;;;32.39;53.90
74474;BME280;62922;-6.168;106.796;2022-12-01T03:55:01;100629.84;;;32.51;53.64
74474;BME280;62922;-6.168;106.796;2022-12-01T03:57:37;100652.94;;;32.66;54.04
74474;BME280;62922;-6.168;106.796;2022-12-01T04:00:07;100697.00;;;32.99;53.59
74474;BME280;62922;-6.168;106.796;2022-12-01T04:02:36;100664.94;;;32.95;53.12
74474;BME280;62922;-6.168;106.796;2022-12-01T04:05:04;100635.44;;;32.84;52.51
74474;BME280;62922;-6.168;106.796;2022-12-01T04:07:31;100660.59;;;33.10;52.50
74474;BME280;62922;-6.168;106.796;2022-12-01T04:09:57;100622.03;;;32.93;52.31
74474;BME280;62922;-6.168;106.796;2022-12-01T04:12:23;100614.41;;;32.94;52.26
74474;BME280;62922;-6.168;106.796;2022-12-01T04:15:02;100661.91;;;33.24;51.87
74474;BME280;62922;-6.168;106.796;2022-12-01T04:17:30;100643.19;;;33.20;51.61
74474;BME280;62922;-6.168;106.796;2022-12-01T04:19:56;100627.16;;;33.12;51.94
74474;BME280;62922;-6.168;106.796;2022-12-01T04:22:23;100638.81;;;33.22;51.73
74474;BME280;62922;-6.168;106.796;2022-12-01T04:24:55;100641.91;;;33.29;51.70
74474;BME280;62922;-6.168;106.796;2022-12-01T04:27:21;100603.47;;;33.04;51.82
74474;BME280;62922;-6.168;106.796;2022-12-01T04:29:47;100607.34;;;33.12;52.43
74474;BME280;62922;-6.168;106.796;2022-12-01T04:32:14;100597.44;;;33.06;52.31
74474;BME280;62922;-6.168;106.796;2022-12-01T04:34:40;100596.41;;;33.10;52.35
74474;BME280;62922;-6.168;106.796;2022-12-01T04:37:07;100622.31;;;33.24;51.96
74474;BME280;62922;-6.168;106.796;2022-12-01T04:39:35;100620.91;;;33.30;52.55
74474;BME280;62922;-6.168;106.796;2022-12-01T04:42:01;100587.22;;;33.01;53.00
74474;BME280;62922;-6.168;106.796;2022-12-01T04:44:28;100593.00;;;33.05;54.20
74474;BME280;62922;-6.168;106.796;2022-12-01T04:46:54;100579.16;;;32.91;53.97
74474;BME280;62922;-6.168;106.796;2022-12-01T04:49:21;100580.63;;;32.97;53.97
74474;BME280;62922;-6.168;106.796;2022-12-01T04:51:47;100573.03;;;32.89;54.63
74474;BME280;62922;-6.168;106.796;2022-12-01T04:54:16;100615.47;;;33.13;54.25
74474;BME280;62922;-6.168;106.796;2022-12-01T04:56:43;100604.53;;;33.12;54.47
74474;BME280;62922;-6.168;106.796;2022-12-01T04:59:10;100593.47;;;33.07;54.70
74474;BME280;62922;-6.168;106.796;2022-12-01T05:01:37;100607.00;;;33.13;54.34
74474;BME280;62922;-6.168;106.796;2022-12-01T05:04:03;100564.69;;;32.93;54.08
74474;BME280;62922;-6.168;106.796;2022-12-01T05:06:30;100582.63;;;33.09;54.16
74474;BME280;62922;-6.168;106.796;2022-12-01T05:08:58;100592.88;;;33.25;54.19
74474;BME280;62922;-6.168;106.796;2022-12-01T05:11:27;100560.00;;;33.09;54.44
74474;BME280;62922;-6.168;106.796;2022-12-01T05:13:54;100574.84;;;33.18;54.08
74474;BME280;62922;-6.168;106.796;2022-12-01T05:16:23;100591.31;;;33.28;54.03
74474;BME280;62922;-6.168;106.796;2022-12-01T05:18:54;100570.72;;;33.27;54.30
74474;BME280;62922;-6.168;106.796;2022-12-01T05:21:41;100571.53;;;33.28;54.70
74474;BME280;62922;-6.168;106.796;2022-12-01T05:24:10;100514.50;;;32.90;54.24
74474;BME280;62922;-6.168;106.796;2022-12-01T05:26:40;100564.94;;;33.24;54.55
74474;BME280;62922;-6.168;106.796;2022-12-01T05:29:07;100507.31;;;32.92;54.49
74474;BME280;62922;-6.168;106.796;2022-12-01T05:31:34;100553.50;;;33.32;54.52
74474;BME280;62922;-6.168;106.796;2022-12-01T05:34:00;100519.44;;;33.17;53.92
74474;BME280;62922;-6.168;106.796;2022-12-01T05:36:26;100542.91;;;33.29;53.94
74474;BME280;62922;-6.168;106.796;2022-12-01T05:38:52;100514.75;;;33.21;54.14
74474;BME280;62922;-6.168;106.796;2022-12-01T05:41:19;100528.03;;;33.32;54.14
74474;BME280;62922;-6.168;106.796;2022-12-01T05:43:46;100511.91;;;33.33;53.88
74474;BME280;62922;-6.168;106.796;2022-12-01T05:46:12;100514.84;;;33.36;54.10
74474;BME280;62922;-6.168;106.796;2022-12-01T05:48:38;100511.66;;;33.38;54.02
74474;BME280;62922;-6.168;106.796;2022-12-01T05:51:14;100441.84;;;33.02;53.99
74474;BME280;62922;-6.168;106.796;2022-12-01T05:53:41;100513.19;;;33.35;53.80
74474;BME280;62922;-6.168;106.796;2022-12-01T05:56:08;100488.44;;;33.32;54.35
74474;BME280;62922;-6.168;106.796;2022-12-01T05:58:37;100421.69;;;32.92;54.01
74474;BME280;62922;-6.168;106.796;2022-12-01T06:01:04;100475.16;;;33.21;54.19
74474;BME280;62922;-6.168;106.796;2022-12-01T06:03:30;100508.19;;;33.44;53.84
74474;BME280;62922;-6.168;106.796;2022-12-01T06:05:56;100522.00;;;33.58;54.08
74474;BME280;62922;-6.168;106.796;2022-12-01T06:08:23;100476.16;;;33.40;53.78
74474;BME280;62922;-6.168;106.796;2022-12-01T06:10:52;100468.84;;;33.39;53.87
74474;BME280;62922;-6.168;106.796;2022-12-01T06:13:18;100460.09;;;33.44;53.56
74474;BME280;62922;-6.168;106.796;2022-12-01T06:15:44;100411.31;;;33.20;54.05
74474;BME280;62922;-6.168;106.796;2022-12-01T06:18:11;100483.06;;;33.67;53.79
74474;BME280;62922;-6.168;106.796;2022-12-01T06:20:37;100440.19;;;33.41;53.57
74474;BME280;62922;-6.168;106.796;2022-12-01T06:23:03;100439.97;;;33.46;53.71
74474;BME280;62922;-6.168;106.796;2022-12-01T06:25:32;100428.88;;;33.53;53.20
74474;BME280;62922;-6.168;106.796;2022-12-01T06:27:58;100445.53;;;33.70;53.20
74474;BME280;62922;-6.168;106.796;2022-12-01T06:30:27;100416.94;;;33.60;53.09
74474;BME280;62922;-6.168;106.796;2022-12-01T06:32:53;100412.00;;;33.57;52.74
74474;BME280;62922;-6.168;106.796;2022-12-01T06:35:20;100433.72;;;33.80;53.12
74474;BME280;62922;-6.168;106.796;2022-12-01T06:37:46;100398.53;;;33.66;53.04
74474;BME280;62922;-6.168;106.796;2022-12-01T06:40:13;100400.06;;;33.63;53.15
74474;BME280;62922;-6.168;106.796;2022-12-01T06:42:40;100416.25;;;33.78;52.63
74474;BME280;62922;-6.168;106.796;2022-12-01T06:45:06;100427.78;;;33.85;53.29
74474;BME280;62922;-6.168;106.796;2022-12-01T06:47:36;100432.31;;;34.02;52.87
74474;BME280;62922;-6.168;106.796;2022-12-01T06:50:02;100325.31;;;33.36;52.60
74474;BME280;62922;-6.168;106.796;2022-12-01T06:52:30;100373.84;;;33.66;52.58
74474;BME280;62922;-6.168;106.796;2022-12-01T06:54:56;100387.50;;;33.76;52.55
74474;BME280;62922;-6.168;106.796;2022-12-01T06:57:25;100424.56;;;33.99;53.12
74474;BME280;62922;-6.168;106.796;2022-12-01T06:59:51;100368.66;;;33.68;52.84
74474;BME280;62922;-6.168;106.796;2022-12-01T07:02:18;100341.19;;;33.53;53.05
74474;BME280;62922;-6.168;106.796;2022-12-01T07:04:44;100370.22;;;33.66;52.79
74474;BME280;62922;-6.168;106.796;2022-12-01T07:07:10;100391.25;;;33.80;52.88
74474;BME280;62922;-6.168;106.796;2022-12-01T07:09:37;100404.63;;;33.95;53.09
74474;BME280;62922;-6.168;106.796;2022-12-01T07:12:04;100355.25;;;33.65;52.95
74474;BME280;62922;-6.168;106.796;2022-12-01T07:14:31;100376.25;;;33.80;52.91
74474;BME280;62922;-6.168;106.796;2022-12-01T07:16:58;100385.31;;;33.85;52.80
74474;BME280;62922;-6.168;106.796;2022-12-01T07:19:24;100375.44;;;33.79;52.75
74474;BME280;62922;-6.168;106.796;2022-12-01T07:21:50;100388.78;;;33.94;53.17
74474;BME280;62922;-6.168;106.796;2022-12-01T07:24:16;100340.63;;;33.63;52.75
74474;BME280;62922;-6.168;106.796;2022-12-01T07:26:43;100367.13;;;33.86;53.05
74474;BME280;62922;-6.168;106.796;2022-12-01T07:29:09;100349.31;;;33.70;53.11
74474;BME280;62922;-6.168;106.796;2022-12-01T07:31:37;100390.31;;;33.92;52.90
74474;BME280;62922;-6.168;106.796;2022-12-01T07:34:04;100384.66;;;33.92;53.24
74474;BME280;62922;-6.168;106.796;2022-12-01T07:36:30;100304.19;;;33.46;53.10
74474;BME280;62922;-6.168;106.796;2022-12-01T07:38:57;100359.38;;;33.83;52.81
74474;BME280;62922;-6.168;106.796;2022-12-01T07:41:23;100329.50;;;33.70;53.09
74474;BME280;62922;-6.168;106.796;2022-12-01T07:43:50;100330.69;;;33.69;52.66
74474;BME280;62922;-6.168;106.796;2022-12-01T07:46:20;100327.13;;;33.72;52.83
74474;BME280;62922;-6.168;106.796;2022-12-01T07:48:47;100344.06;;;33.84;53.18
74474;BME280;62922;-6.168;106.796;2022-12-01T07:51:14;100314.00;;;33.64;52.95
74474;BME280;62922;-6.168;106.796;2022-12-01T07:53:42;100361.69;;;33.93;53.66
74474;BME280;62922;-6.168;106.796;2022-12-01T07:56:09;100332.34;;;33.70;53.25
74474;BME280;62922;-6.168;106.796;2022-12-01T07:58:35;100378.19;;;33.91;53.20
74474;BME280;62922;-6.168;106.796;2022-12-01T08:01:24;100372.44;;;33.88;53.64
74474;BME280;62922;-6.168;106.796;2022-12-01T08:03:55;100366.69;;;33.84;53.74
74474;BME280;62922;-6.168;106.796;2022-12-01T08:06:22;100361.13;;;33.88;53.62
74474;BME280;62922;-6.168;106.796;2022-12-01T08:08:49;100371.72;;;33.91;53.51
74474;BME280;62922;-6.168;106.796;2022-12-01T08:11:27;100342.03;;;33.69;53.19
74474;BME280;62922;-6.168;106.796;2022-12-01T08:13:55;100346.66;;;33.77;53.66
74474;BME280;62922;-6.168;106.796;2022-12-01T08:16:22;100283.91;;;33.44;53.71
74474;BME280;62922;-6.168;106.796;2022-12-01T08:18:51;100335.72;;;33.76;53.70
74474;BME280;62922;-6.168;106.796;2022-12-01T08:21:20;100343.13;;;33.80;53.64
74474;BME280;62922;-6.168;106.796;2022-12-01T08:23:53;100272.13;;;33.42;54.13
74474;BME280;62922;-6.168;106.796;2022-12-01T08:26:20;100305.94;;;33.66;53.80
74474;BME280;62922;-6.168;106.796;2022-12-01T08:28:46;100246.47;;;33.35;54.14
74474;BME280;62922;-6.168;106.796;2022-12-01T08:31:18;100329.91;;;33.84;53.74
74474;BME280;62922;-6.168;106.796;2022-12-01T08:33:46;100259.75;;;33.46;53.60
74474;BME280;62922;-6.168;106.796;2022-12-01T08:36:13;100305.59;;;33.83;53.55
74474;BME280;62922;-6.168;106.796;2022-12-01T08:38:43;100273.91;;;33.62;53.15
74474;BME280;62922;-6.168;106.796;2022-12-01T08:41:11;100284.50;;;33.65;53.65
74474;BME280;62922;-6.168;106.796;2022-12-01T08:43:38;100283.41;;;33.70;53.06
74474;BME280;62922;-6.168;106.796;2022-12-01T08:46:06;100295.16;;;33.72;53.73
74474;BME280;62922;-6.168;106.796;2022-12-01T08:48:33;100291.25;;;33.76;53.54
74474;BME280;62922;-6.168;106.796;2022-12-01T08:51:03;100259.22;;;33.57;53.37
74474;BME280;62922;-6.168;106.796;2022-12-01T08:53:30;100303.50;;;33.80;53.48
74474;BME280;62922;-6.168;106.796;2022-12-01T08:56:00;100306.34;;;33.80;53.09
74474;BME280;62922;-6.168;106.796;2022-12-01T08:58:27;100305.41;;;33.76;53.90
74474;BME280;62922;-6.168;106.796;2022-12-01T09:01:00;100295.53;;;33.70;53.51
74474;BME280;62922;-6.168;106.796;2022-12-01T09:03:26;100238.34;;;33.33;53.77
74474;BME280;62922;-6.168;106.796;2022-12-01T09:05:53;100307.22;;;33.69;53.76
74474;BME280;62922;-6.168;106.796;2022-12-01T09:08:19;100297.44;;;33.66;53.90
74474;BME280;62922;-6.168;106.796;2022-12-01T09:11:00;100306.84;;;33.70;53.73
74474;BME280;62922;-6.168;106.796;2022-12-01T09:13:27;100272.81;;;33.51;53.27
74474;BME280;62922;-6.168;106.796;2022-12-01T09:16:00;100306.84;;;33.70;53.28
74474;BME280;62922;-6.168;106.796;2022-12-01T09:18:27;100296.00;;;33.57;53.66
74474;BME280;62922;-6.168;106.796;2022-12-01T09:20:57;100334.78;;;33.72;53.92
74474;BME280;62922;-6.168;106.796;2022-12-01T09:23:24;100331.06;;;33.68;54.23
74474;BME280;62922;-6.168;106.796;2022-12-01T09:25:51;100289.44;;;33.40;53.71
74474;BME280;62922;-6.168;106.796;2022-12-01T09:28:18;100325.09;;;33.57;54.57
74474;BME280;62922;-6.168;106.796;2022-12-01T09:30:45;100296.59;;;33.34;54.50
74474;BME280;62922;-6.168;106.796;2022-12-01T09:33:12;100298.38;;;33.27;54.64
74474;BME280;62922;-6.168;106.796;2022-12-01T09:35:39;100353.28;;;33.53;54.35
74474;BME280;62922;-6.168;106.796;2022-12-01T09:38:05;100347.91;;;33.48;54.02
74474;BME280;62922;-6.168;106.796;2022-12-01T09:40:37;100311.91;;;33.06;54.39
74474;BME280;62922;-6.168;106.796;2022-12-01T09:43:19;100407.72;;;33.63;54.04
74474;BME280;62922;-6.168;106.796;2022-12-01T09:45:53;100381.25;;;33.43;53.50
74474;BME280;62922;-6.168;106.796;2022-12-01T09:48:27;100395.31;;;33.39;53.90
74474;BME280;62922;-6.168;106.796;2022-12-01T09:50:54;100413.28;;;33.59;53.92
74474;BME280;62922;-6.168;106.796;2022-12-01T09:53:23;100400.59;;;33.41;53.89
74474;BME280;62922;-6.168;106.796;2022-12-01T09:55:51;100401.06;;;33.43;54.35
74474;BME280;62922;-6.168;106.796;2022-12-01T09:58:23;100420.88;;;33.55;54.31
74474;BME280;62922;-6.168;106.796;2022-12-01T10:00:50;100410.63;;;33.50;54.42
74474;BME280;62922;-6.168;106.796;2022-12-01T10:03:32;100415.91;;;33.52;54.70
74474;BME280;62922;-6.168;106.796;2022-12-01T10:06:04;100285.34;;;32.83;54.49
74474;BME280;62922;-6.168;106.796;2022-12-01T10:08:37;100355.31;;;33.25;53.71
74474;BME280;62922;-6.168;106.796;2022-12-01T10:11:15;100358.72;;;33.31;54.04
74474;BME280;62922;-6.168;106.796;2022-12-01T10:13:45;100402.22;;;33.54;54.87
74474;BME280;62922;-6.168;106.796;2022-12-01T10:16:12;100380.44;;;33.42;54.19
74474;BME280;62922;-6.168;106.796;2022-12-01T10:32:19;100343.53;;;33.23;54.93
74474;BME280;62922;-6.168;106.796;2022-12-01T10:34:47;100305.94;;;32.95;54.75
74474;BME280;62922;-6.168;106.796;2022-12-01T10:37:27;100336.00;;;33.15;54.86
74474;BME280;62922;-6.168;106.796;2022-12-01T10:39:56;100387.09;;;33.34;54.85
74474;BME280;62922;-6.168;106.796;2022-12-01T10:42:36;100342.41;;;33.12;54.19
74474;BME280;62922;-6.168;106.796;2022-12-01T10:48:15;100413.00;;;33.36;54.65
74474;BME280;62922;-6.168;106.796;2022-12-01T10:50:48;100370.09;;;33.07;54.02
74474;BME280;62922;-6.168;106.796;2022-12-01T10:53:31;100427.97;;;33.37;54.82
74474;BME280;62922;-6.168;106.796;2022-12-01T10:58:49;100408.97;;;33.10;54.50
74474;BME280;62922;-6.168;106.796;2022-12-01T11:01:18;100459.31;;;33.32;55.17
74474;BME280;62922;-6.168;106.796;2022-12-01T11:03:50;100455.00;;;33.22;54.69
74474;BME280;62922;-6.168;106.796;2022-12-01T11:06:21;100455.25;;;33.17;54.83
74474;BME280;62922;-6.168;106.796;2022-12-01T11:08:54;100459.28;;;33.16;55.47
74474;BME280;62922;-6.168;106.796;2022-12-01T11:13:49;100456.34;;;33.01;55.66
74474;BME280;62922;-6.168;106.796;2022-12-01T11:19:31;100484.59;;;33.13;55.73
74474;BME280;62922;-6.168;106.796;2022-12-01T11:22:00;100494.25;;;33.12;55.48
74474;BME280;62922;-6.168;106.796;2022-12-01T11:24:42;100480.03;;;32.96;55.48
74474;BME280;62922;-6.168;106.796;2022-12-01T11:27:18;100464.34;;;32.87;55.26
74474;BME280;62922;-6.168;106.796;2022-12-01T11:29:48;100416.78;;;32.52;55.71
74474;BME280;62922;-6.168;106.796;2022-12-01T11:32:19;100519.69;;;33.12;55.53
74474;BME280;62922;-6.168;106.796;2022-12-01T11:37:38;100524.41;;;33.08;55.85
74474;BME280;62922;-6.168;106.796;2022-12-01T11:40:14;100534.66;;;33.12;55.67
74474;BME280;62922;-6.168;106.796;2022-12-01T11:42:46;100492.13;;;32.85;55.79
74474;BME280;62922;-6.168;106.796;2022-12-01T11:45:28;100480.00;;;32.72;55.75
74474;BME280;62922;-6.168;106.796;2022-12-01T11:50:36;100535.75;;;32.96;55.78
74474;BME280;62922;-6.168;106.796;2022-12-01T11:53:09;100512.97;;;32.80;55.92
74474;BME280;62922;-6.168;106.796;2022-12-01T11:55:49;100507.44;;;32.72;55.89
74474;BME280;62922;-6.168;106.796;2022-12-01T11:58:16;100557.88;;;32.94;56.12
74474;BME280;62922;-6.168;106.796;2022-12-01T12:00:48;100572.13;;;32.97;56.58
74474;BME280;62922;-6.168;106.796;2022-12-01T12:03:21;100571.66;;;32.95;56.76
74474;BME280;62922;-6.168;106.796;2022-12-01T12:08:41;100533.78;;;32.64;56.61
74474;BME280;62922;-6.168;106.796;2022-12-01T12:17:09;100587.75;;;32.83;56.82
74474;BME280;62922;-6.168;106.796;2022-12-01T12:27:55;100608.94;;;32.77;57.30
74474;BME280;62922;-6.168;106.796;2022-12-01T12:30:29;100564.38;;;32.49;56.93
74474;BME280;62922;-6.168;106.796;2022-12-01T12:33:24;100618.13;;;32.74;56.66
74474;BME280;62922;-6.168;106.796;2022-12-01T12:36:10;100578.25;;;32.42;57.31
74474;BME280;62922;-6.168;106.796;2022-12-01T12:38:47;100638.03;;;32.77;56.69
74474;BME280;62922;-6.168;106.796;2022-12-01T12:41:33;100594.19;;;32.47;57.03
74474;BME280;62922;-6.168;106.796;2022-12-01T12:54:53;100657.91;;;32.69;57.13
74474;BME280;62922;-6.168;106.796;2022-12-01T13:05:03;100670.72;;;32.66;57.77
74474;BME280;62922;-6.168;106.796;2022-12-01T13:07:46;100660.00;;;32.60;57.48
74474;BME280;62922;-6.168;106.796;2022-12-01T13:10:38;100658.47;;;32.62;57.86
74474;BME280;62922;-6.168;106.796;2022-12-01T13:13:30;100674.63;;;32.62;57.46
74474;BME280;62922;-6.168;106.796;2022-12-01T13:16:00;100627.50;;;32.33;57.38
74474;BME280;62922;-6.168;106.796;2022-12-01T13:21:13;100639.16;;;32.31;58.01
74474;BME280;62922;-6.168;106.796;2022-12-01T13:23:40;100657.53;;;32.37;57.78
74474;BME280;62922;-6.168;106.796;2022-12-01T13:26:08;100679.19;;;32.54;58.10
74474;BME280;62922;-6.168;106.796;2022-12-01T13:28:44;100674.69;;;32.53;58.13
74474;BME280;62922;-6.168;106.796;2022-12-01T13:31:14;100637.16;;;32.32;57.71
74474;BME280;62922;-6.168;106.796;2022-12-01T13:33:52;100662.16;;;32.42;58.29
74474;BME280;62922;-6.168;106.796;2022-12-01T13:36:20;100678.69;;;32.52;57.91
74474;BME280;62922;-6.168;106.796;2022-12-01T13:39:13;100673.53;;;32.54;57.83
74474;BME280;62922;-6.168;106.796;2022-12-01T13:41:43;100597.41;;;32.04;58.21
74474;BME280;62922;-6.168;106.796;2022-12-01T13:44:24;100666.22;;;32.53;58.11
74474;BME280;62922;-6.168;106.796;2022-12-01T13:46:52;100672.69;;;32.53;57.82
74474;BME280;62922;-6.168;106.796;2022-12-01T13:52:26;100677.03;;;32.51;57.78
74474;BME280;62922;-6.168;106.796;2022-12-01T14:00:29;100689.38;;;32.46;58.21
74474;BME280;62922;-6.168;106.796;2022-12-01T14:08:36;100666.78;;;32.26;57.99
74474;BME280;62922;-6.168;106.796;2022-12-01T14:11:05;100703.88;;;32.45;58.38
74474;BME280;62922;-6.168;106.796;2022-12-01T14:13:45;100622.31;;;32.02;58.20
74474;BME280;62922;-6.168;106.796;2022-12-01T14:16:16;100663.72;;;32.31;58.35
74474;BME280;62922;-6.168;106.796;2022-12-01T14:18:49;100684.41;;;32.43;58.17
74474;BME280;62922;-6.168;106.796;2022-12-01T14:21:39;100696.38;;;32.40;58.81
74474;BME280;62922;-6.168;106.796;2022-12-01T14:24:20;100643.78;;;32.15;58.61
74474;BME280;62922;-6.168;106.796;2022-12-01T14:26:47;100651.44;;;32.15;58.55
74474;BME280;62922;-6.168;106.796;2022-12-01T14:34:20;100613.81;;;31.82;58.66
74474;BME280;62922;-6.168;106.796;2022-12-01T14:39:42;100716.22;;;32.32;58.42
74474;BME280;62922;-6.168;106.796;2022-12-01T14:44:39;100718.00;;;32.36;58.74
74474;BME280;62922;-6.168;106.796;2022-12-01T14:50:00;100714.22;;;32.32;58.55
74474;BME280;62922;-6.168;106.796;2022-12-01T14:52:29;100671.63;;;32.05;58.79
74474;BME280;62922;-6.168;106.796;2022-12-01T14:54:59;100709.75;;;32.31;58.88
74474;BME280;62922;-6.168;106.796;2022-12-01T14:57:32;100710.59;;;32.32;58.15
74474;BME280;62922;-6.168;106.796;2022-12-01T15:00:05;100693.78;;;32.15;58.86
74474;BME280;62922;-6.168;106.796;2022-12-01T15:02:32;100714.16;;;32.20;58.76
74474;BME280;62922;-6.168;106.796;2022-12-01T15:05:11;100686.06;;;32.03;59.00